createdAt,value
2022-09-20T00:02:01.989Z,12.03
2022-09-20T00:04:29.882Z,11.97
2022-09-20T00:06:57.638Z,11.89
2022-09-20T00:09:25.536Z,11.75
2022-09-20T00:11:54.802Z,11.69
2022-09-20T00:14:22.551Z,11.66
2022-09-20T00:16:50.379Z,11.58
2022-09-20T00:19:20.776Z,11.53
2022-09-20T00:21:48.866Z,11.41
2022-09-20T00:24:16.671Z,11.48
2022-09-20T00:26:44.431Z,11.44
2022-09-20T00:29:13.751Z,11.34
2022-09-20T00:31:42.957Z,11.24
2022-09-20T00:34:30.775Z,11.18
2022-09-20T00:36:58.561Z,11.12
2022-09-20T00:39:26.396Z,11.15
2022-09-20T00:41:54.147Z,11.15
2022-09-20T00:44:47.647Z,11.12
2022-09-20T00:47:23.505Z,11.10
2022-09-20T00:49:54.237Z,11.10
2022-09-20T00:52:22.891Z,11.11
2022-09-20T00:54:51.044Z,11.01
2022-09-20T00:57:18.944Z,11.05
2022-09-20T00:59:50.255Z,11.02
2022-09-20T01:02:20.590Z,11.00
2022-09-20T01:04:49.956Z,10.95
2022-09-20T01:07:22.980Z,10.93
2022-09-20T01:09:51.600Z,10.93
2022-09-20T01:12:22.813Z,10.85
2022-09-20T01:14:53.596Z,10.81
2022-09-20T01:17:25.991Z,10.87
2022-09-20T01:20:08.894Z,10.82
2022-09-20T01:22:49.571Z,10.79
2022-09-20T01:25:24.977Z,10.76
2022-09-20T01:27:55.251Z,10.77
2022-09-20T01:30:25.877Z,10.76
2022-09-20T01:33:09.120Z,10.71
2022-09-20T01:35:37.551Z,10.69
2022-09-20T01:38:21.237Z,10.75
2022-09-20T01:40:57.392Z,10.76
2022-09-20T01:43:32.822Z,10.84
2022-09-20T01:46:10.255Z,10.85
2022-09-20T01:48:39.934Z,10.88
2022-09-20T01:51:37.039Z,10.91
2022-09-20T01:54:50.446Z,10.84
2022-09-20T01:57:38.200Z,10.86
2022-09-20T02:00:14.040Z,10.85
2022-09-20T02:03:33.265Z,10.81
2022-09-20T02:06:40.207Z,10.67
2022-09-20T02:09:40.812Z,10.55
2022-09-20T02:12:39.575Z,10.30
2022-09-20T02:15:16.361Z,10.14
2022-09-20T02:17:56.223Z,10.24
2022-09-20T02:20:34.397Z,10.21
2022-09-20T02:23:17.213Z,10.24
2022-09-20T02:26:06.080Z,10.20
2022-09-20T02:28:52.886Z,10.09
2022-09-20T02:31:33.572Z,10.10
2022-09-20T02:34:42.947Z,10.12
2022-09-20T02:37:25.559Z,10.14
2022-09-20T02:40:13.687Z,10.09
2022-09-20T02:42:48.514Z,10.02
2022-09-20T02:45:24.556Z,10.07
2022-09-20T02:47:57.587Z,10.09
2022-09-20T02:50:33.346Z,10.12
2022-09-20T02:53:15.249Z,9.99
2022-09-20T02:55:51.221Z,9.91
2022-09-20T02:58:31.667Z,9.77
2022-09-20T03:01:06.371Z,9.84
2022-09-20T03:03:45.318Z,9.81
2022-09-20T03:06:24.315Z,9.74
2022-09-20T03:08:59.446Z,9.78
2022-09-20T03:11:33.643Z,9.75
2022-09-20T03:14:12.779Z,9.73
2022-09-20T03:16:53.856Z,9.65
2022-09-20T03:19:37.344Z,9.67
2022-09-20T03:22:18.148Z,9.52
2022-09-20T03:25:00.203Z,9.65
2022-09-20T03:27:34.821Z,9.69
2022-09-20T03:30:25.273Z,9.67
2022-09-20T03:33:02.922Z,9.58
2022-09-20T03:35:46.430Z,9.71
2022-09-20T03:38:31.628Z,9.62
2022-09-20T03:41:17.016Z,9.52
2022-09-20T03:44:02.725Z,9.47
2022-09-20T03:46:35.620Z,9.46
2022-09-20T03:49:41.821Z,9.49
2022-09-20T03:52:23.077Z,9.34
2022-09-20T03:55:47.532Z,9.14
2022-09-20T03:58:29.297Z,8.89
2022-09-20T04:01:10.465Z,8.88
2022-09-20T04:03:49.582Z,8.82
2022-09-20T04:06:49.021Z,8.82
2022-09-20T04:09:32.376Z,8.66
2022-09-20T04:12:06.844Z,8.64
2022-09-20T04:14:41.719Z,8.56
2022-09-20T04:17:26.151Z,8.57
2022-09-20T04:20:00.697Z,8.60
2022-09-20T04:22:30.556Z,8.57
2022-09-20T04:25:05.330Z,8.53
2022-09-20T04:27:38.341Z,8.53
2022-09-20T04:30:11.964Z,8.52
2022-09-20T04:32:44.902Z,8.49
2022-09-20T04:35:40.185Z,8.52
2022-09-20T04:38:11.045Z,8.68
2022-09-20T04:40:57.695Z,8.86
2022-09-20T04:44:06.115Z,9.07
2022-09-20T04:46:59.814Z,9.06
2022-09-20T04:50:06.111Z,9.11
2022-09-20T04:52:49.795Z,9.13
2022-09-20T04:56:00.893Z,9.20
2022-09-20T04:59:08.250Z,9.04
2022-09-20T05:02:11.710Z,8.86
2022-09-20T05:05:21.774Z,8.79
2022-09-20T05:08:19.268Z,8.73
2022-09-20T05:11:39.409Z,8.68
2022-09-20T05:14:26.866Z,8.77
2022-09-20T05:17:14.694Z,8.84
2022-09-20T05:19:55.647Z,8.93
2022-09-20T05:22:48.172Z,9.05
2022-09-20T05:25:45.065Z,9.16
2022-09-20T05:28:21.800Z,9.31
2022-09-20T05:30:56.359Z,9.63
2022-09-20T05:33:29.652Z,9.80
2022-09-20T05:36:07.611Z,9.96
2022-09-20T05:38:47.205Z,10.03
2022-09-20T05:41:29.800Z,10.10
2022-09-20T05:44:07.310Z,10.31
2022-09-20T05:46:50.839Z,10.43
2022-09-20T05:49:40.645Z,10.56
2022-09-20T05:52:26.844Z,10.69
2022-09-20T05:55:26.516Z,10.91
2022-09-20T05:58:18.018Z,11.20
2022-09-20T06:00:52.803Z,11.30
2022-09-20T06:03:31.875Z,11.32
2022-09-20T06:06:07.109Z,11.43
2022-09-20T06:09:07.364Z,11.40
2022-09-20T06:12:01.782Z,11.33
2022-09-20T06:14:41.512Z,11.41
2022-09-20T06:17:21.991Z,11.50
2022-09-20T06:20:00.583Z,11.70
2022-09-20T06:22:33.387Z,11.66
2022-09-20T06:25:04.453Z,11.82
2022-09-20T06:27:37.593Z,11.90
2022-09-20T06:30:09.054Z,11.83
2022-09-20T06:32:53.464Z,12.03
2022-09-20T06:35:25.225Z,12.03
2022-09-20T06:38:17.859Z,12.05
2022-09-20T06:41:07.054Z,12.20
2022-09-20T06:43:40.371Z,12.28
2022-09-20T06:46:08.840Z,12.41
2022-09-20T06:48:39.925Z,12.25
2022-09-20T06:51:11.079Z,12.48
2022-09-20T06:53:41.991Z,12.60
2022-09-20T06:56:15.426Z,12.49
2022-09-20T06:58:43.315Z,12.62
2022-09-20T07:01:11.236Z,12.71
2022-09-20T07:03:39.186Z,12.66
2022-09-20T07:06:07.595Z,12.55
2022-09-20T07:08:36.860Z,12.79
2022-09-20T07:11:06.212Z,13.10
2022-09-20T07:13:34.342Z,13.18
2022-09-20T07:16:03.256Z,13.23
2022-09-20T07:18:31.772Z,13.12
2022-09-20T07:20:59.686Z,13.31
2022-09-20T07:23:27.512Z,13.41
2022-09-20T07:26:01.589Z,13.63
2022-09-20T07:28:30.570Z,13.55
2022-09-20T07:30:58.690Z,13.18
2022-09-20T07:33:26.495Z,13.53
2022-09-20T07:35:55.761Z,13.34
2022-09-20T07:38:24.156Z,13.59
2022-09-20T07:40:57.956Z,13.22
2022-09-20T07:43:26.565Z,13.48
2022-09-20T07:45:56.220Z,13.48
2022-09-20T07:48:26.868Z,13.40
2022-09-20T07:50:56.113Z,13.03
2022-09-20T07:53:24.145Z,13.38
2022-09-20T07:56:01.508Z,13.72
2022-09-20T07:58:30.502Z,13.92
2022-09-20T08:01:00.266Z,14.14
2022-09-20T08:03:30.961Z,14.12
2022-09-20T08:06:03.092Z,14.42
2022-09-20T08:08:33.864Z,14.26
2022-09-20T08:11:08.181Z,14.38
2022-09-20T08:16:28.771Z,14.40
2022-09-20T08:18:58.859Z,14.45
2022-09-20T08:21:28.243Z,14.23
2022-09-20T08:23:56.350Z,14.56
2022-09-20T08:26:26.913Z,14.50
2022-09-20T08:28:57.238Z,14.67
2022-09-20T08:31:27.821Z,14.74
2022-09-20T08:33:56.241Z,14.49
2022-09-20T08:36:26.125Z,14.59
2022-09-20T08:41:49.595Z,14.41
2022-09-20T08:44:25.322Z,14.88
2022-09-20T08:47:02.646Z,14.94
2022-09-20T08:49:31.814Z,14.80
2022-09-20T08:52:02.333Z,14.92
2022-09-20T08:54:33.420Z,14.87
2022-09-20T08:57:07.095Z,15.13
2022-09-20T08:59:35.073Z,15.07
2022-09-20T09:02:03.012Z,15.20
2022-09-20T09:04:36.149Z,15.28
2022-09-20T09:07:04.665Z,15.44
2022-09-20T09:09:38.045Z,15.39
2022-09-20T09:12:07.650Z,15.93
2022-09-20T09:14:55.020Z,16.12
2022-09-20T09:17:28.313Z,16.22
2022-09-20T09:19:57.736Z,16.56
2022-09-20T09:22:32.154Z,16.44
2022-09-20T09:25:24.378Z,15.98
2022-09-20T09:27:58.490Z,16.47
2022-09-20T09:30:28.912Z,16.36
2022-09-20T09:33:32.141Z,16.43
2022-09-20T09:36:05.721Z,16.71
2022-09-20T09:38:36.117Z,16.43
2022-09-20T09:41:06.463Z,16.45
2022-09-20T09:43:38.486Z,16.36
2022-09-20T09:46:21.525Z,16.29
2022-09-20T09:49:06.617Z,16.65
2022-09-20T09:51:38.595Z,16.74
2022-09-20T09:54:08.109Z,16.53
2022-09-20T09:56:59.530Z,16.28
2022-09-20T09:59:41.217Z,15.85
2022-09-20T10:02:28.839Z,15.72
2022-09-20T10:05:04.170Z,15.53
2022-09-20T10:07:39.463Z,15.68
2022-09-20T10:10:18.075Z,15.60
2022-09-20T10:13:03.283Z,15.82
2022-09-20T10:15:42.556Z,15.82
2022-09-20T10:18:32.759Z,16.01
2022-09-20T10:21:10.024Z,16.04
2022-09-20T10:24:08.248Z,16.03
2022-09-20T10:26:58.258Z,16.08
2022-09-20T10:29:40.272Z,16.65
2022-09-20T10:32:22.923Z,16.76
2022-09-20T10:35:20.841Z,17.22
2022-09-20T10:38:01.485Z,17.31
2022-09-20T10:40:50.028Z,17.44
2022-09-20T10:43:32.907Z,17.22
2022-09-20T10:46:32.339Z,16.81
2022-09-20T10:49:11.853Z,16.51
2022-09-20T10:51:53.068Z,16.12
2022-09-20T10:54:35.484Z,15.76
2022-09-20T10:57:19.076Z,15.61
2022-09-20T10:59:55.232Z,15.99
2022-09-20T11:02:40.135Z,16.63
2022-09-20T11:05:27.326Z,17.03
2022-09-20T11:08:07.935Z,16.58
2022-09-20T11:10:43.020Z,17.09
2022-09-20T11:13:19.013Z,17.59
2022-09-20T11:15:53.696Z,17.68
2022-09-20T11:18:26.549Z,18.22
2022-09-20T11:21:01.758Z,18.25
2022-09-20T11:23:41.945Z,18.22
2022-09-20T11:26:14.419Z,17.44
2022-09-20T11:28:46.228Z,17.13
2022-09-20T11:31:23.497Z,16.78
2022-09-20T11:33:56.417Z,16.66
2022-09-20T11:36:31.504Z,15.78
2022-09-20T11:39:04.534Z,15.30
2022-09-20T11:41:34.458Z,14.99
2022-09-20T11:44:07.944Z,14.56
2022-09-20T11:46:41.564Z,14.23
2022-09-20T11:49:17.481Z,13.77
2022-09-20T11:52:22.090Z,13.76
2022-09-20T11:55:10.747Z,13.99
2022-09-20T11:57:39.205Z,14.24
2022-09-20T12:00:10.194Z,14.55
2022-09-20T12:02:46.098Z,14.81
2022-09-20T12:05:27.735Z,15.13
2022-09-20T12:07:59.405Z,15.24
2022-09-20T12:10:30.516Z,15.25
2022-09-20T12:13:00.593Z,15.52
2022-09-20T12:15:32.139Z,15.62
2022-09-20T12:18:09.360Z,15.83
2022-09-20T12:21:00.915Z,16.39
2022-09-20T12:23:48.034Z,16.64
2022-09-20T12:26:41.221Z,16.86
2022-09-20T12:29:54.188Z,16.74
2022-09-20T12:32:46.187Z,16.75
2022-09-20T12:36:00.031Z,16.69
2022-09-20T12:38:37.902Z,16.51
2022-09-20T12:41:27.816Z,16.55
2022-09-20T12:44:03.824Z,16.67
2022-09-20T12:46:53.170Z,16.60
2022-09-20T12:49:46.192Z,16.78
2022-09-20T12:52:55.518Z,16.82
2022-09-20T12:55:40.746Z,16.79
2022-09-20T12:58:28.026Z,17.35
2022-09-20T13:01:29.641Z,17.73
2022-09-20T13:04:55.083Z,18.07
2022-09-20T13:07:43.760Z,18.21
2022-09-20T13:10:25.238Z,17.81
2022-09-20T13:12:58.420Z,17.89
2022-09-20T13:15:28.297Z,17.36
2022-09-20T13:18:00.770Z,17.56
2022-09-20T13:20:31.365Z,17.32
2022-09-20T13:23:01.038Z,17.18
2022-09-20T13:25:29.689Z,16.30
2022-09-20T13:28:07.547Z,16.13
2022-09-20T13:30:37.559Z,16.07
2022-09-20T13:33:23.163Z,16.13
2022-09-20T13:35:54.484Z,16.38
2022-09-20T13:38:25.349Z,16.43
2022-09-20T13:40:55.073Z,16.68
2022-09-20T13:43:29.200Z,16.75
2022-09-20T13:46:00.449Z,16.47
2022-09-20T13:48:29.706Z,16.78
2022-09-20T13:50:58.615Z,16.58
2022-09-20T13:53:41.203Z,16.44
2022-09-20T13:56:12.587Z,16.54
2022-09-20T13:58:40.500Z,16.31
2022-09-20T14:01:24.077Z,16.52
2022-09-20T14:03:52.242Z,16.64
2022-09-20T14:06:28.177Z,16.87
2022-09-20T14:08:58.441Z,17.03
2022-09-20T14:11:28.547Z,17.16
2022-09-20T14:13:58.832Z,17.25
2022-09-20T14:16:32.567Z,17.08
2022-09-20T14:19:02.022Z,17.76
2022-09-20T14:21:33.445Z,18.88
2022-09-20T14:24:04.895Z,17.49
2022-09-20T14:26:34.705Z,17.48
2022-09-20T14:29:29.528Z,19.18
2022-09-20T14:32:01.088Z,19.95
2022-09-20T14:34:29.470Z,19.21
2022-09-20T14:37:06.226Z,17.92
2022-09-20T14:39:39.195Z,19.23
2022-09-20T14:42:19.874Z,19.73
2022-09-20T14:44:51.699Z,19.58
2022-09-20T14:47:28.561Z,19.39
2022-09-20T14:49:58.044Z,18.56
2022-09-20T14:52:45.358Z,20.02
2022-09-20T14:55:28.329Z,20.82
2022-09-20T14:58:01.494Z,21.05
2022-09-20T15:00:30.395Z,21.46
2022-09-20T15:03:09.170Z,20.91
2022-09-20T15:05:37.164Z,22.92
2022-09-20T15:08:04.995Z,24.06
2022-09-20T15:10:33.054Z,24.04
2022-09-20T15:13:00.832Z,24.90
2022-09-20T15:15:28.704Z,25.61
2022-09-20T15:17:56.528Z,24.30
2022-09-20T15:20:25.947Z,25.09
2022-09-20T15:22:53.809Z,26.71
2022-09-20T15:25:22.334Z,26.28
2022-09-20T15:27:51.750Z,27.27
2022-09-20T15:30:21.119Z,28.54
2022-09-20T15:32:49.069Z,26.11
2022-09-20T15:35:17.096Z,22.07
2022-09-20T15:37:46.520Z,20.03
2022-09-20T15:40:15.479Z,19.49
2022-09-20T15:42:43.875Z,18.80
2022-09-20T15:45:13.274Z,18.67
2022-09-20T15:47:42.349Z,18.63
2022-09-20T15:50:11.249Z,18.11
2022-09-20T15:52:41.989Z,18.01
2022-09-20T15:55:12.072Z,17.39
2022-09-20T15:57:41.834Z,17.06
2022-09-20T16:00:10.814Z,17.35
2022-09-20T16:02:38.887Z,17.60
2022-09-20T16:05:07.183Z,17.17
2022-09-20T16:07:35.877Z,17.27
2022-09-20T16:10:04.319Z,17.02
2022-09-20T16:12:33.513Z,16.83
2022-09-20T16:15:01.394Z,16.63
2022-09-20T16:17:46.618Z,16.42
2022-09-20T16:20:14.571Z,16.30
2022-09-20T16:22:42.352Z,16.26
2022-09-20T16:25:10.421Z,16.14
2022-09-20T16:27:39.919Z,15.87
2022-09-20T16:30:09.079Z,15.90
2022-09-20T16:32:37.487Z,15.96
2022-09-20T16:35:07.740Z,15.83
2022-09-20T16:37:36.988Z,15.72
2022-09-20T16:40:05.136Z,15.70
2022-09-20T16:42:33.359Z,15.71
2022-09-20T16:45:02.662Z,15.68
2022-09-20T16:47:30.892Z,15.80
2022-09-20T16:49:58.814Z,15.69
2022-09-20T16:52:27.424Z,15.66
2022-09-20T16:54:56.023Z,15.69
2022-09-20T16:57:23.833Z,15.59
2022-09-20T16:59:54.122Z,15.64
2022-09-20T17:02:23.263Z,15.52
2022-09-20T17:04:51.893Z,15.40
2022-09-20T17:07:24.544Z,15.37
2022-09-20T17:09:53.462Z,15.29
2022-09-20T17:12:23.374Z,15.18
2022-09-20T17:14:51.242Z,15.13
2022-09-20T17:17:21.889Z,15.00
2022-09-20T17:19:51.235Z,14.68
2022-09-20T17:22:18.984Z,14.60
2022-09-20T17:24:46.779Z,14.33
2022-09-20T17:27:14.811Z,14.31
2022-09-20T17:29:42.619Z,14.49
2022-09-20T17:32:11.307Z,14.35
2022-09-20T17:34:39.736Z,14.29
2022-09-20T17:37:10.086Z,14.36
2022-09-20T17:39:37.968Z,14.25
2022-09-20T17:42:06.134Z,14.26
2022-09-20T17:44:36.721Z,14.32
2022-09-20T17:47:04.898Z,14.16
2022-09-20T17:49:33.931Z,14.25
2022-09-20T17:52:02.380Z,14.36
2022-09-20T17:54:31.617Z,14.25
2022-09-20T17:56:59.997Z,14.20
2022-09-20T17:59:28.158Z,14.12
2022-09-20T18:01:55.929Z,14.04
2022-09-20T18:04:24.989Z,14.11
2022-09-20T18:06:54.695Z,14.03
2022-09-20T18:09:25.266Z,14.07
2022-09-20T18:11:55.972Z,14.04
2022-09-20T18:14:27.265Z,13.99
2022-09-20T18:16:57.787Z,14.07
2022-09-20T18:19:32.332Z,14.02
2022-09-20T18:22:00.537Z,13.81
2022-09-20T18:24:28.467Z,13.74
2022-09-20T18:26:57.688Z,13.51
2022-09-20T18:29:27.793Z,13.36
2022-09-20T18:31:56.753Z,13.29
2022-09-20T18:34:31.834Z,13.46
2022-09-20T18:37:01.321Z,13.28
2022-09-20T18:39:31.397Z,13.23
2022-09-20T18:42:01.002Z,13.20
2022-09-20T18:44:33.486Z,13.18
2022-09-20T18:47:02.676Z,13.07
2022-09-20T18:49:30.729Z,13.08
2022-09-20T18:51:59.008Z,13.16
2022-09-20T18:54:30.100Z,13.32
2022-09-20T18:56:58.418Z,13.21
2022-09-20T18:59:29.205Z,13.18
2022-09-20T19:02:05.658Z,13.13
2022-09-20T19:04:49.214Z,13.17
2022-09-20T19:07:24.689Z,13.20
2022-09-20T19:09:58.842Z,13.16
2022-09-20T19:12:34.934Z,13.32
2022-09-20T19:15:30.481Z,13.25
2022-09-20T19:18:11.134Z,13.23
2022-09-20T19:20:47.715Z,13.16
2022-09-20T19:23:44.789Z,13.03
2022-09-20T19:26:21.967Z,13.03
2022-09-20T19:28:51.044Z,13.01
2022-09-20T19:31:26.605Z,12.99
2022-09-20T19:33:56.305Z,12.93
2022-09-20T19:36:25.387Z,12.87
2022-09-20T19:39:03.873Z,12.88
2022-09-20T19:41:47.277Z,12.82
2022-09-20T19:44:29.612Z,12.82
2022-09-20T19:47:11.097Z,12.78
2022-09-20T19:49:51.133Z,12.68
2022-09-20T19:52:19.713Z,12.70
2022-09-20T19:54:48.132Z,12.72
2022-09-20T19:57:21.112Z,12.72
2022-09-20T19:59:50.542Z,12.87
2022-09-20T20:02:20.899Z,12.89
2022-09-20T20:04:49.323Z,12.89
2022-09-20T20:07:27.952Z,13.00
2022-09-20T20:10:04.205Z,12.91
2022-09-20T20:12:39.542Z,12.68
2022-09-20T20:15:19.215Z,12.67
2022-09-20T20:17:56.455Z,12.59
2022-09-20T20:20:32.750Z,12.52
2022-09-20T20:23:35.381Z,12.43
2022-09-20T20:26:07.155Z,12.40
2022-09-20T20:28:35.945Z,12.33
2022-09-20T20:31:05.129Z,12.29
2022-09-20T20:33:34.317Z,12.27
2022-09-20T20:36:03.086Z,12.17
2022-09-20T20:38:36.798Z,12.10
2022-09-20T20:41:06.720Z,12.16
2022-09-20T20:43:36.380Z,12.13
2022-09-20T20:46:04.838Z,12.03
2022-09-20T20:48:34.693Z,11.89
2022-09-20T20:51:03.748Z,11.72
2022-09-20T20:53:33.097Z,11.73
2022-09-20T20:56:07.152Z,11.62
2022-09-20T20:58:36.213Z,11.47
2022-09-20T21:01:08.452Z,11.27
2022-09-20T21:03:37.924Z,11.19
2022-09-20T21:06:06.149Z,11.09
2022-09-20T21:08:35.863Z,11.08
2022-09-20T21:11:05.781Z,10.94
2022-09-20T21:13:35.204Z,10.92
2022-09-20T21:16:05.661Z,10.84
2022-09-20T21:18:34.372Z,10.82
2022-09-20T21:21:05.312Z,10.80
2022-09-20T21:23:37.004Z,10.74
2022-09-20T21:26:08.428Z,10.69
2022-09-20T21:28:37.857Z,10.65
2022-09-20T21:31:06.799Z,10.57
2022-09-20T21:33:36.561Z,10.52
2022-09-20T21:36:08.075Z,10.56
2022-09-20T21:38:36.783Z,10.45
2022-09-20T21:41:06.641Z,10.47
2022-09-20T21:43:34.899Z,10.43
2022-09-20T21:46:03.926Z,10.21
2022-09-20T21:48:31.934Z,10.17
2022-09-20T21:51:06.182Z,10.07
2022-09-20T21:53:35.084Z,10.12
2022-09-20T21:56:05.027Z,10.14
2022-09-20T21:58:33.963Z,10.04
2022-09-20T22:01:04.326Z,9.99
2022-09-20T22:03:34.838Z,9.96
2022-09-20T22:06:12.533Z,9.95
2022-09-20T22:08:42.207Z,9.96
2022-09-20T22:11:14.949Z,9.93
2022-09-20T22:13:43.876Z,9.83
2022-09-20T22:16:13.457Z,9.91
2022-09-20T22:18:42.927Z,9.87
2022-09-20T22:21:13.969Z,9.80
2022-09-20T22:23:42.935Z,9.80
2022-09-20T22:26:13.347Z,9.77
2022-09-20T22:28:41.280Z,9.76
2022-09-20T22:31:11.114Z,9.64
2022-09-20T22:33:43.079Z,9.68
2022-09-20T22:36:15.670Z,9.66
2022-09-20T22:38:44.652Z,9.50
2022-09-20T22:41:13.438Z,9.60
2022-09-20T22:43:41.797Z,9.60
2022-09-20T22:46:11.888Z,9.49
2022-09-20T22:48:40.118Z,9.48
2022-09-20T22:51:09.510Z,9.32
2022-09-20T22:53:39.320Z,9.22
2022-09-20T22:56:08.640Z,9.14
2022-09-20T22:58:38.445Z,9.06
2022-09-20T23:01:08.246Z,9.15
2022-09-20T23:03:36.606Z,9.18
2022-09-20T23:06:04.884Z,9.04
2022-09-20T23:08:33.602Z,9.14
2022-09-20T23:11:07.024Z,9.03
2022-09-20T23:13:35.148Z,8.89
2022-09-20T23:16:11.577Z,8.94
2022-09-20T23:18:39.454Z,8.81
2022-09-20T23:21:07.646Z,8.82
2022-09-20T23:23:36.481Z,8.82
2022-09-20T23:26:08.422Z,8.73
2022-09-20T23:28:37.229Z,8.83
2022-09-20T23:31:06.554Z,8.86
2022-09-20T23:33:34.834Z,8.81
2022-09-20T23:36:06.632Z,8.81
2022-09-20T23:38:34.396Z,8.71
2022-09-20T23:41:04.801Z,8.69
2022-09-20T23:43:37.623Z,8.59
2022-09-20T23:46:08.356Z,8.57
2022-09-20T23:48:37.097Z,8.60
2022-09-20T23:51:06.060Z,8.60
2022-09-20T23:53:34.103Z,8.53
2022-09-20T23:56:02.258Z,8.57
2022-09-20T23:58:30.150Z,8.55
